HON22 KOMA-KGRI
Flight info
| Callsign | HON22 |
|---|---|
| Flight time | 0h 37m |
| Altitude | 16000 |
| Route | OMA1 OVR V6 GRI |
| Aircraft | HDJT/L-SABDGRWY/H |
Departure
| Time | 2026-05-09 00:33 |
|---|---|
| Airport | Eppley Airfield (KOMA) |
Arrival
| Time | 2026-05-09 01:11 |
|---|---|
| Airport | Central Nebraska Regional Airport (KGRI) |
| Time | Latitude | Longitude | Altitude | Speed | Heading |
|---|---|---|---|---|---|
| 2026-05-08 23:56 | 41.29581 | -95.89809 | 980 ft | 0 kts | 178° |
| 2026-05-09 00:04 | 41.29575 | -95.89808 | 998 ft | 2 kts | 163° |
| 2026-05-09 00:04 | 41.29552 | -95.89764 | 979 ft | 13 kts | 105° |
| 2026-05-09 00:05 | 41.29501 | -95.89617 | 984 ft | 25 kts | 162° |
| 2026-05-09 00:05 | 41.29373 | -95.89607 | 982 ft | 20 kts | 180° |
| 2026-05-09 00:05 | 41.29184 | -95.89602 | 985 ft | 22 kts | 174° |
| 2026-05-09 00:05 | 41.29109 | -95.89458 | 980 ft | 29 kts | 84° |
| 2026-05-09 00:06 | 41.29108 | -95.89232 | 982 ft | 22 kts | 89° |
| 2026-05-09 00:06 | 41.29109 | -95.88996 | 980 ft | 24 kts | 86° |
| 2026-05-09 00:06 | 41.29173 | -95.88807 | 980 ft | 14 kts | 44° |
| 2026-05-09 00:06 | 41.29306 | -95.88820 | 978 ft | 28 kts | 314° |
| 2026-05-09 00:07 | 41.29315 | -95.88872 | 980 ft | 4 kts | 298° |
| 2026-05-09 00:07 | 41.29347 | -95.88930 | 981 ft | 10 kts | 18° |
| 2026-05-09 00:07 | 41.29350 | -95.88927 | 981 ft | 0 kts | 50° |
| 2026-05-09 00:17 | 41.29351 | -95.88925 | 981 ft | 0 kts | 79° |
| 2026-05-09 00:19 | 41.29332 | -95.88881 | 983 ft | 14 kts | 149° |
| 2026-05-09 00:19 | 41.29263 | -95.88787 | 977 ft | 10 kts | 139° |
| 2026-05-09 00:19 | 41.29232 | -95.88701 | 976 ft | 3 kts | 78° |
| 2026-05-09 00:19 | 41.29232 | -95.88700 | 976 ft | 0 kts | 77° |
| 2026-05-09 00:21 | 41.29233 | -95.88689 | 976 ft | 0 kts | 85° |
| 2026-05-09 00:27 | 41.29233 | -95.88688 | 987 ft | 0 kts | 85° |
| 2026-05-09 00:31 | 41.29263 | -95.88643 | 974 ft | 14 kts | 24° |
| 2026-05-09 00:31 | 41.29330 | -95.88656 | 974 ft | 0 kts | 326° |
| 2026-05-09 00:32 | 41.29335 | -95.88660 | 979 ft | 12 kts | 326° |
| 2026-05-09 00:32 | 41.29680 | -95.88904 | 987 ft | 97 kts | 319° |
| 2026-05-09 00:32 | 41.30394 | -95.89543 | 1122 ft | 131 kts | 324° |
| 2026-05-09 00:33 | 41.31257 | -95.90280 | 1078 ft | 167 kts | 328° |
| 2026-05-09 00:33 | 41.32279 | -95.91080 | 1333 ft | 167 kts | 328° |
| 2026-05-09 00:33 | 41.33244 | -95.91798 | 1790 ft | 155 kts | 329° |
| 2026-05-09 00:33 | 41.34161 | -95.92450 | 2593 ft | 142 kts | 334° |
| 2026-05-09 00:34 | 41.35138 | -95.92500 | 3361 ft | 152 kts | 19° |
| 2026-05-09 00:34 | 41.35984 | -95.91576 | 4067 ft | 164 kts | 52° |
| 2026-05-09 00:34 | 41.36313 | -95.90075 | 4671 ft | 185 kts | 90° |
| 2026-05-09 00:34 | 41.35795 | -95.88445 | 5272 ft | 199 kts | 136° |
| 2026-05-09 00:35 | 41.34635 | -95.87459 | 6089 ft | 200 kts | 156° |
| 2026-05-09 00:35 | 41.33377 | -95.86633 | 6863 ft | 202 kts | 154° |
| 2026-05-09 00:35 | 41.32161 | -95.85712 | 7652 ft | 205 kts | 151° |
| 2026-05-09 00:35 | 41.30929 | -95.84738 | 8468 ft | 207 kts | 152° |
| 2026-05-09 00:36 | 41.29673 | -95.83757 | 9307 ft | 210 kts | 152° |
| 2026-05-09 00:36 | 41.28400 | -95.82766 | 10101 ft | 213 kts | 152° |
| 2026-05-09 00:36 | 41.27103 | -95.81757 | 10858 ft | 218 kts | 152° |
| 2026-05-09 00:36 | 41.25780 | -95.80729 | 11531 ft | 223 kts | 152° |
| 2026-05-09 00:37 | 41.24396 | -95.79770 | 12217 ft | 224 kts | 169° |
| 2026-05-09 00:37 | 41.23079 | -95.80122 | 12809 ft | 181 kts | 272° |
| 2026-05-09 00:37 | 41.23525 | -95.80565 | 11133 ft | 202 kts | 53° |
| 2026-05-09 00:37 | 41.22426 | -95.79528 | 8610 ft | 298 kts | 239° |
| 2026-05-09 00:38 | 41.21671 | -95.81920 | 8880 ft | 264 kts | 259° |
| 2026-05-09 00:38 | 41.21394 | -95.84191 | 9218 ft | 236 kts | 264° |
| 2026-05-09 00:38 | 41.21031 | -95.86982 | 10014 ft | 229 kts | 264° |
| 2026-05-09 00:38 | 41.20780 | -95.89066 | 10806 ft | 229 kts | 265° |
| 2026-05-09 00:39 | 41.20616 | -95.90487 | 11324 ft | 230 kts | 266° |
| 2026-05-09 00:39 | 41.20372 | -95.92571 | 12071 ft | 232 kts | 266° |
| 2026-05-09 00:39 | 41.20120 | -95.94694 | 12871 ft | 233 kts | 266° |
| 2026-05-09 00:39 | 41.19866 | -95.96834 | 13638 ft | 235 kts | 267° |
| 2026-05-09 00:40 | 41.19608 | -95.98994 | 14358 ft | 237 kts | 267° |
| 2026-05-09 00:40 | 41.19349 | -96.01167 | 15050 ft | 240 kts | 267° |
| 2026-05-09 00:40 | 41.19085 | -96.03371 | 15748 ft | 243 kts | 268° |
| 2026-05-09 00:41 | 41.18519 | -96.08194 | 16017 ft | 290 kts | 266° |
| 2026-05-09 00:41 | 41.18184 | -96.10942 | 16013 ft | 311 kts | 266° |
| 2026-05-09 00:41 | 41.17829 | -96.13832 | 16020 ft | 322 kts | 266° |
| 2026-05-09 00:41 | 41.17475 | -96.16737 | 16022 ft | 323 kts | 266° |
| 2026-05-09 00:42 | 41.17118 | -96.19682 | 16024 ft | 322 kts | 266° |
| 2026-05-09 00:42 | 41.16762 | -96.22620 | 16027 ft | 322 kts | 266° |
| 2026-05-09 00:42 | 41.16406 | -96.25555 | 16029 ft | 322 kts | 266° |
| 2026-05-09 00:42 | 41.16048 | -96.28492 | 16027 ft | 322 kts | 266° |
| 2026-05-09 00:43 | 41.15688 | -96.31431 | 16028 ft | 322 kts | 266° |
| 2026-05-09 00:43 | 41.15329 | -96.34369 | 16029 ft | 322 kts | 266° |
| 2026-05-09 00:43 | 41.14968 | -96.37308 | 16027 ft | 322 kts | 266° |
| 2026-05-09 00:43 | 41.14607 | -96.40242 | 16026 ft | 322 kts | 266° |
| 2026-05-09 00:44 | 41.14246 | -96.43173 | 16028 ft | 322 kts | 265° |
| 2026-05-09 00:44 | 41.13884 | -96.46110 | 16030 ft | 322 kts | 265° |
| 2026-05-09 00:44 | 41.13521 | -96.49039 | 16011 ft | 322 kts | 265° |
| 2026-05-09 00:44 | 41.13158 | -96.51964 | 16011 ft | 321 kts | 265° |
| 2026-05-09 00:45 | 41.12795 | -96.54892 | 16017 ft | 322 kts | 265° |
| 2026-05-09 00:45 | 41.12430 | -96.57817 | 16018 ft | 322 kts | 265° |
| 2026-05-09 00:45 | 41.12065 | -96.60742 | 16018 ft | 321 kts | 265° |
| 2026-05-09 00:45 | 41.11699 | -96.63663 | 16018 ft | 321 kts | 265° |
| 2026-05-09 00:46 | 41.11337 | -96.66555 | 16019 ft | 321 kts | 265° |
| 2026-05-09 00:46 | 41.10968 | -96.69482 | 16021 ft | 321 kts | 265° |
| 2026-05-09 00:46 | 41.10600 | -96.72408 | 16022 ft | 321 kts | 265° |
| 2026-05-09 00:46 | 41.10232 | -96.75328 | 16032 ft | 319 kts | 266° |
| 2026-05-09 00:47 | 41.09997 | -96.78234 | 15842 ft | 314 kts | 270° |
| 2026-05-09 00:47 | 41.09808 | -96.81133 | 15108 ft | 315 kts | 269° |
| 2026-05-09 00:47 | 41.09606 | -96.84005 | 14421 ft | 311 kts | 269° |
| 2026-05-09 00:47 | 41.09404 | -96.86847 | 13716 ft | 307 kts | 269° |
| 2026-05-09 00:48 | 41.09212 | -96.89611 | 12949 ft | 304 kts | 269° |
| 2026-05-09 00:48 | 41.09019 | -96.92395 | 12266 ft | 298 kts | 268° |
| 2026-05-09 00:48 | 41.08829 | -96.95024 | 11991 ft | 277 kts | 269° |
| 2026-05-09 00:48 | 41.08656 | -96.97563 | 11232 ft | 277 kts | 269° |
| 2026-05-09 00:49 | 41.08484 | -97.00099 | 10518 ft | 275 kts | 268° |
| 2026-05-09 00:49 | 41.08307 | -97.02629 | 9816 ft | 274 kts | 268° |
| 2026-05-09 00:49 | 41.08129 | -97.05141 | 9077 ft | 273 kts | 267° |
| 2026-05-09 00:49 | 41.07954 | -97.07637 | 8361 ft | 271 kts | 267° |
| 2026-05-09 00:50 | 41.07779 | -97.10121 | 7661 ft | 270 kts | 267° |
| 2026-05-09 00:50 | 41.07487 | -97.12545 | 6980 ft | 270 kts | 260° |
| 2026-05-09 00:50 | 41.07034 | -97.14951 | 6344 ft | 268 kts | 257° |
| 2026-05-09 00:50 | 41.06497 | -97.17305 | 5666 ft | 266 kts | 256° |
| 2026-05-09 00:51 | 41.05955 | -97.19657 | 4989 ft | 265 kts | 256° |
| 2026-05-09 00:51 | 41.05419 | -97.21978 | 4376 ft | 263 kts | 256° |
| 2026-05-09 00:51 | 41.04885 | -97.24293 | 3749 ft | 261 kts | 256° |
| 2026-05-09 00:51 | 41.04356 | -97.26584 | 3469 ft | 258 kts | 255° |
| 2026-05-09 00:52 | 41.03827 | -97.28870 | 3472 ft | 258 kts | 256° |
| 2026-05-09 00:52 | 41.03301 | -97.31151 | 3481 ft | 261 kts | 256° |
| 2026-05-09 00:52 | 41.02772 | -97.33438 | 3474 ft | 259 kts | 257° |
| 2026-05-09 00:52 | 41.02242 | -97.35743 | 3473 ft | 262 kts | 256° |
| 2026-05-09 00:53 | 41.01715 | -97.38048 | 3476 ft | 261 kts | 256° |
| 2026-05-09 00:53 | 41.01192 | -97.40341 | 3473 ft | 261 kts | 256° |
| 2026-05-09 00:53 | 41.00670 | -97.42637 | 3476 ft | 259 kts | 256° |
| 2026-05-09 00:53 | 41.00152 | -97.44925 | 3475 ft | 260 kts | 256° |
| 2026-05-09 00:54 | 40.99636 | -97.47206 | 3473 ft | 262 kts | 256° |
| 2026-05-09 00:54 | 40.99109 | -97.49541 | 3478 ft | 265 kts | 256° |
| 2026-05-09 00:54 | 40.98587 | -97.51857 | 3482 ft | 260 kts | 256° |
| 2026-05-09 00:54 | 40.98071 | -97.54150 | 3484 ft | 260 kts | 256° |
| 2026-05-09 00:55 | 40.97564 | -97.56409 | 3487 ft | 261 kts | 257° |
| 2026-05-09 00:55 | 40.97042 | -97.58746 | 3486 ft | 262 kts | 257° |
| 2026-05-09 00:55 | 40.96532 | -97.61034 | 3482 ft | 262 kts | 256° |
| 2026-05-09 00:55 | 40.96015 | -97.63356 | 3486 ft | 262 kts | 256° |
| 2026-05-09 00:56 | 40.95502 | -97.65663 | 3481 ft | 261 kts | 256° |
| 2026-05-09 00:56 | 40.94990 | -97.67969 | 3480 ft | 260 kts | 257° |
| 2026-05-09 00:56 | 40.94482 | -97.70262 | 3481 ft | 261 kts | 256° |
| 2026-05-09 00:56 | 40.93970 | -97.72572 | 3482 ft | 263 kts | 257° |
| 2026-05-09 00:57 | 40.93456 | -97.74905 | 3479 ft | 264 kts | 256° |
| 2026-05-09 00:57 | 40.92946 | -97.77223 | 3483 ft | 261 kts | 256° |
| 2026-05-09 00:57 | 40.92440 | -97.79531 | 3481 ft | 262 kts | 256° |
| 2026-05-09 00:57 | 40.91935 | -97.81841 | 3496 ft | 261 kts | 256° |
| 2026-05-09 00:58 | 40.91431 | -97.84150 | 3498 ft | 260 kts | 256° |
| 2026-05-09 00:58 | 40.90953 | -97.86324 | 3493 ft | 236 kts | 257° |
| 2026-05-09 00:58 | 40.90507 | -97.88328 | 3493 ft | 221 kts | 256° |
| 2026-05-09 00:58 | 40.90075 | -97.90255 | 3492 ft | 218 kts | 257° |
| 2026-05-09 00:59 | 40.89647 | -97.92178 | 3492 ft | 218 kts | 257° |
| 2026-05-09 00:59 | 40.89219 | -97.94103 | 3492 ft | 218 kts | 257° |
| 2026-05-09 00:59 | 40.88795 | -97.96028 | 3495 ft | 219 kts | 257° |
| 2026-05-09 00:59 | 40.88370 | -97.97957 | 3496 ft | 218 kts | 257° |
| 2026-05-09 01:00 | 40.87950 | -97.99872 | 3490 ft | 215 kts | 257° |
| 2026-05-09 01:00 | 40.87548 | -98.01689 | 3493 ft | 196 kts | 258° |
| 2026-05-09 01:00 | 40.87175 | -98.03342 | 3495 ft | 180 kts | 258° |
| 2026-05-09 01:00 | 40.86827 | -98.04863 | 3491 ft | 167 kts | 258° |
| 2026-05-09 01:01 | 40.86498 | -98.06255 | 3500 ft | 145 kts | 259° |
| 2026-05-09 01:01 | 40.86206 | -98.07418 | 3486 ft | 123 kts | 259° |
| 2026-05-09 01:01 | 40.85933 | -98.08464 | 3492 ft | 120 kts | 257° |
| 2026-05-09 01:01 | 40.85658 | -98.09515 | 3489 ft | 122 kts | 258° |
| 2026-05-09 01:02 | 40.85383 | -98.10578 | 3488 ft | 122 kts | 258° |
| 2026-05-09 01:02 | 40.85114 | -98.11620 | 3489 ft | 121 kts | 258° |
| 2026-05-09 01:02 | 40.84840 | -98.12678 | 3492 ft | 123 kts | 258° |
| 2026-05-09 01:02 | 40.84567 | -98.13749 | 3490 ft | 123 kts | 258° |
| 2026-05-09 01:03 | 40.84294 | -98.14811 | 3496 ft | 122 kts | 258° |
| 2026-05-09 01:03 | 40.84022 | -98.15874 | 3493 ft | 122 kts | 258° |
| 2026-05-09 01:03 | 40.83750 | -98.16940 | 3492 ft | 124 kts | 256° |
| 2026-05-09 01:03 | 40.83472 | -98.18032 | 3483 ft | 125 kts | 257° |
| 2026-05-09 01:04 | 40.83197 | -98.19111 | 3485 ft | 124 kts | 258° |
| 2026-05-09 01:04 | 40.83207 | -98.20211 | 3498 ft | 121 kts | 285° |
| 2026-05-09 01:04 | 40.83302 | -98.21319 | 3494 ft | 122 kts | 278° |
| 2026-05-09 01:04 | 40.83352 | -98.22410 | 3496 ft | 118 kts | 278° |
| 2026-05-09 01:05 | 40.83414 | -98.23488 | 3496 ft | 118 kts | 279° |
| 2026-05-09 01:05 | 40.83475 | -98.24574 | 3496 ft | 119 kts | 281° |
| 2026-05-09 01:05 | 40.84056 | -98.26554 | 3501 ft | 115 kts | 303° |
| 2026-05-09 01:06 | 40.84446 | -98.27469 | 3505 ft | 115 kts | 303° |
| 2026-05-09 01:06 | 40.84838 | -98.28396 | 3505 ft | 116 kts | 303° |
| 2026-05-09 01:06 | 40.85223 | -98.29337 | 3502 ft | 116 kts | 302° |
| 2026-05-09 01:06 | 40.85601 | -98.30274 | 3507 ft | 116 kts | 303° |
| 2026-05-09 01:07 | 40.86035 | -98.31167 | 3485 ft | 115 kts | 313° |
| 2026-05-09 01:07 | 40.86741 | -98.31526 | 3408 ft | 117 kts | 359° |
| 2026-05-09 01:07 | 40.87567 | -98.31528 | 3276 ft | 117 kts | 356° |
| 2026-05-09 01:07 | 40.88338 | -98.31538 | 3151 ft | 106 kts | 355° |
| 2026-05-09 01:08 | 40.89079 | -98.31539 | 3032 ft | 110 kts | 358° |
| 2026-05-09 01:08 | 40.89855 | -98.31532 | 2909 ft | 110 kts | 356° |
| 2026-05-09 01:08 | 40.90603 | -98.31527 | 2781 ft | 106 kts | 358° |
| 2026-05-09 01:08 | 40.91368 | -98.31522 | 2656 ft | 112 kts | 356° |
| 2026-05-09 01:09 | 40.92129 | -98.31516 | 2522 ft | 107 kts | 358° |
| 2026-05-09 01:09 | 40.92843 | -98.31508 | 2399 ft | 99 kts | 357° |
| 2026-05-09 01:09 | 40.93527 | -98.31503 | 2289 ft | 97 kts | 358° |
| 2026-05-09 01:09 | 40.94194 | -98.31499 | 2175 ft | 98 kts | 0° |
| 2026-05-09 01:10 | 40.94886 | -98.31494 | 2054 ft | 100 kts | 0° |
| 2026-05-09 01:10 | 40.95590 | -98.31488 | 1937 ft | 100 kts | 0° |
| 2026-05-09 01:10 | 40.96281 | -98.31481 | 1844 ft | 99 kts | 2° |
| 2026-05-09 01:10 | 40.96935 | -98.31492 | 1845 ft | 66 kts | 1° |
| 2026-05-09 01:11 | 40.97262 | -98.31485 | 1844 ft | 51 kts | 1° |
| 2026-05-09 01:11 | 40.97550 | -98.31484 | 1845 ft | 37 kts | 360° |
| 2026-05-09 01:11 | 40.97700 | -98.31514 | 1844 ft | 13 kts | 304° |
| 2026-05-09 01:11 | 40.97710 | -98.31563 | 1845 ft | 0 kts | 270° |
| 2026-05-09 01:12 | 40.97699 | -98.31663 | 1845 ft | 17 kts | 229° |
| 2026-05-09 01:12 | 40.97510 | -98.31680 | 1844 ft | 39 kts | 180° |
| 2026-05-09 01:12 | 40.97320 | -98.31713 | 1844 ft | 17 kts | 206° |
| 2026-05-09 01:13 | 40.97193 | -98.31777 | 1844 ft | 1 kts | 256° |
| 2026-05-09 01:13 | 40.97196 | -98.31817 | 1845 ft | 0 kts | 273° |